Airfield :
LOGIN :

Register | Disclaimer

   EN    FR    IT 

 










Legend :    VFR   Marginal VFR   IFR   Intensive IFR   Very Intensive IFR
Visi :
Ceiling :
>= 8 km
>= 3000ft
5 to 8 km
1000 to 3000 ft
1500m to 5 km
500 to 1000 ft
800 to 1500m
200 to 500 ft
< 800m
< 200 ft
Symbols :   Thunderstorms  Fog  Heavy snow  Heavy precipitations  Wind > 20 kt
SIGMETs :     Misc.  Thunderstorms  Icing  Turbulence  Mountain Waves  Volcanic Ashes






- Airport Elevation : 39 ft
- IATA code : ANR


EBAW - Anvers / Antwerpen Deurne

CURRENT METAR :
  • 241750Z 24017G32KT 9999 FEW008 BKN014 11/08 Q1006 TEMPO BKN008

EXPIRED METARs :
  • 241720Z 23017G29KT 190V260 8000 -RA FEW008 BKN014 10/09 Q1006 TEMPO BKN008
  • 241650Z 23017G27KT 6000 -RA FEW008 BKN014 10/09 Q1006 TEMPO 2500 -RADZ BKN008
  • 241620Z 24017G29KT 4000 -RA FEW012 BKN016 10/09 Q1007 TEMPO 2500 -RADZ BKN012
  • 241550Z 24022G32KT 4000 -RA FEW013 BKN018 11/08 Q1007 TEMPO 2500 -RADZ BKN012
  • 241520Z 24024G38KT 210V280 9999 -DZ BKN023 12/07 Q1007 TEMPO 4000 -RADZ BKN012

TAF TAF EBAW
Valid from the 24 at 18:00 until the 25 at 03:00 UTC


241703Z 2418/2503 23018G30KT 9999 SCT012 BKN025
TEMPO 2418/2423 3000 RA DZRA BKN007
BECMG 2423/2501 26012KT



MET'MAP, your aeronautical weather chart ! - Copyright ORBIFLY December 2007 - Disclaimer

ORBIFLY MET'MAP TEAM :

Programming & Development : Alexandra Zaïnal
Concept & original design : Baudouin d'Aumeries
Assistance for programming : Marc-Olivier Méhu
Technical & hardware support : Manuel Goepfert

Contact : metmap@orbifly.com




SOURCES & CREDITS :

   NOAA